createdAt,value
2022-11-14T00:00:26.880Z,4.01
2022-11-14T00:05:26.831Z,3.99
2022-11-14T00:10:26.751Z,3.95
2022-11-14T00:15:26.687Z,3.90
2022-11-14T00:20:26.646Z,3.83
2022-11-14T00:25:26.578Z,3.76
2022-11-14T00:30:26.503Z,3.69
2022-11-14T00:35:26.443Z,3.62
2022-11-14T00:40:26.367Z,3.56
2022-11-14T00:45:26.303Z,3.50
2022-11-14T00:50:26.238Z,3.44
2022-11-14T00:55:26.159Z,3.39
2022-11-14T01:00:26.166Z,3.32
2022-11-14T01:05:43.742Z,3.23
2022-11-14T01:10:36.146Z,3.13
2022-11-14T01:15:36.074Z,3.03
2022-11-14T01:20:36.010Z,2.95
2022-11-14T01:25:35.965Z,2.90
2022-11-14T01:30:35.876Z,2.86
2022-11-14T01:35:35.806Z,2.82
2022-11-14T01:40:35.761Z,2.78
2022-11-14T01:45:35.707Z,2.73
2022-11-14T01:50:35.627Z,2.70
2022-11-14T01:55:35.573Z,2.68
2022-11-14T02:00:35.530Z,2.69
2022-11-14T02:05:35.459Z,2.70
2022-11-14T02:10:35.385Z,2.69
2022-11-14T02:15:35.297Z,2.68
2022-11-14T02:20:35.237Z,2.67
2022-11-14T02:25:35.161Z,2.66
2022-11-14T02:30:35.111Z,2.65
2022-11-14T02:35:35.050Z,2.63
2022-11-14T02:40:34.971Z,2.60
2022-11-14T02:45:34.923Z,2.57
2022-11-14T02:50:34.851Z,2.53
2022-11-14T02:55:34.789Z,2.49
2022-11-14T03:00:34.753Z,2.45
2022-11-14T03:05:34.657Z,2.43
2022-11-14T03:10:34.591Z,2.41
2022-11-14T03:15:34.543Z,2.39
2022-11-14T03:20:34.470Z,2.37
2022-11-14T03:25:34.410Z,2.34
2022-11-14T03:30:34.389Z,2.29
2022-11-14T03:35:34.283Z,2.25
2022-11-14T03:40:34.211Z,2.21
2022-11-14T03:45:34.155Z,2.18
2022-11-14T03:50:34.083Z,2.17
2022-11-14T03:55:34.026Z,2.14
2022-11-14T04:00:33.995Z,2.12
2022-11-14T04:05:33.922Z,2.08
2022-11-14T04:10:33.881Z,2.05
2022-11-14T04:15:33.766Z,2.01
2022-11-14T04:20:33.681Z,1.97
2022-11-14T04:25:33.637Z,1.94
2022-11-14T04:30:34.870Z,1.91
2022-11-14T04:35:33.508Z,1.89
2022-11-14T04:40:33.436Z,1.90
2022-11-14T04:45:33.505Z,1.92
2022-11-14T04:50:33.309Z,1.94
2022-11-14T04:55:33.290Z,1.95
2022-11-14T05:00:33.192Z,1.95
2022-11-14T05:05:34.367Z,1.96
2022-11-14T05:10:33.078Z,1.97
2022-11-14T05:15:47.401Z,2.01
2022-11-14T05:20:39.851Z,2.06
2022-11-14T05:25:39.743Z,2.12
2022-11-14T05:30:41.508Z,2.18
2022-11-14T05:35:39.612Z,2.25
2022-11-14T05:40:39.549Z,2.31
2022-11-14T05:45:39.484Z,2.39
2022-11-14T05:50:39.429Z,2.48
2022-11-14T05:55:39.347Z,2.57
2022-11-14T06:00:45.759Z,2.67
2022-11-14T06:05:40.239Z,2.77
2022-11-14T06:10:39.154Z,2.88
2022-11-14T06:15:39.095Z,2.99
2022-11-14T06:20:39.049Z,3.09
2022-11-14T06:25:38.977Z,3.19
2022-11-14T06:30:38.924Z,3.29
2022-11-14T06:35:38.856Z,3.36
2022-11-14T06:40:38.791Z,3.40
2022-11-14T06:45:38.810Z,3.44
2022-11-14T06:50:38.653Z,3.48
2022-11-14T06:55:38.593Z,3.54
2022-11-14T07:00:38.538Z,3.61
2022-11-14T07:05:38.463Z,3.68
2022-11-14T07:10:38.392Z,3.78
2022-11-14T07:15:38.323Z,3.92
2022-11-14T07:20:38.273Z,4.10
2022-11-14T07:25:38.205Z,4.31
2022-11-14T07:30:38.122Z,4.53
2022-11-14T07:35:38.057Z,4.76
2022-11-14T07:40:38.007Z,4.97
2022-11-14T07:45:38.376Z,5.15
2022-11-14T07:50:37.864Z,5.30
2022-11-14T07:55:37.796Z,5.43
2022-11-14T08:00:37.787Z,5.53
2022-11-14T08:05:37.662Z,5.62
2022-11-14T08:10:37.615Z,5.69
2022-11-14T08:15:37.524Z,5.75
2022-11-14T08:20:37.461Z,5.82
2022-11-14T08:25:37.404Z,5.88
2022-11-14T08:30:37.320Z,5.96
2022-11-14T08:35:37.276Z,6.05
2022-11-14T08:40:37.310Z,6.17
2022-11-14T08:45:37.140Z,6.29
2022-11-14T08:50:37.092Z,6.39
2022-11-14T08:55:37.017Z,6.49
2022-11-14T09:00:36.937Z,6.60
2022-11-14T09:05:36.883Z,6.75
2022-11-14T09:10:36.819Z,6.94
2022-11-14T09:15:36.739Z,7.08
2022-11-14T09:20:40.088Z,7.19
2022-11-14T09:25:36.610Z,7.29
2022-11-14T09:30:36.549Z,7.38
2022-11-14T09:35:36.491Z,7.46
2022-11-14T09:40:36.420Z,7.51
2022-11-14T09:45:36.356Z,7.55
2022-11-14T09:50:36.294Z,7.58
2022-11-14T09:55:37.445Z,7.59
2022-11-14T10:00:36.163Z,7.58
2022-11-14T10:05:36.081Z,7.59
2022-11-14T10:10:38.839Z,7.62
2022-11-14T10:15:35.963Z,7.67
2022-11-14T10:20:35.904Z,7.72
2022-11-14T10:25:39.593Z,7.74
2022-11-14T10:30:36.826Z,7.75
2022-11-14T10:35:35.675Z,7.76
2022-11-14T10:40:35.642Z,7.81
2022-11-14T10:45:35.564Z,7.88
2022-11-14T10:50:35.557Z,7.95
2022-11-14T10:55:57.754Z,8.03
2022-11-14T11:00:36.382Z,8.15
2022-11-14T11:05:35.310Z,8.33
2022-11-14T11:10:35.239Z,8.70
2022-11-14T11:15:35.169Z,9.12
2022-11-14T11:20:35.134Z,9.50
2022-11-14T11:25:35.015Z,9.85
2022-11-14T11:30:34.970Z,10.19
2022-11-14T11:35:34.913Z,10.43
2022-11-14T11:40:34.812Z,10.61
2022-11-14T11:45:34.799Z,11.00
2022-11-14T11:50:34.719Z,11.41
2022-11-14T11:55:34.613Z,11.51
2022-11-14T12:00:34.563Z,11.28
2022-11-14T12:05:34.532Z,10.91
2022-11-14T12:10:34.449Z,10.55
2022-11-14T12:15:34.387Z,10.34
2022-11-14T12:20:34.341Z,10.31
2022-11-14T12:25:34.253Z,10.45
2022-11-14T12:30:34.196Z,10.57
2022-11-14T12:35:34.176Z,10.61
2022-11-14T12:40:34.056Z,10.70
2022-11-14T12:45:33.982Z,10.75
2022-11-14T12:50:33.986Z,10.72
2022-11-14T12:55:33.836Z,10.66
2022-11-14T13:00:33.781Z,10.56
2022-11-14T13:05:33.713Z,10.41
2022-11-14T13:10:33.663Z,10.26
2022-11-14T13:15:33.598Z,10.12
2022-11-14T13:20:33.518Z,9.98
2022-11-14T13:25:33.464Z,9.88
2022-11-14T13:30:33.390Z,9.81
2022-11-14T13:35:34.291Z,9.75
2022-11-14T13:40:33.291Z,9.70
2022-11-14T13:45:33.179Z,9.62
2022-11-14T13:50:33.130Z,9.54
2022-11-14T13:55:33.056Z,9.47
2022-11-14T14:00:32.970Z,9.40
2022-11-14T14:05:32.926Z,9.31
2022-11-14T14:10:32.872Z,9.21
2022-11-14T14:15:32.804Z,9.12
2022-11-14T14:20:32.742Z,9.05
2022-11-14T14:25:32.662Z,9.00
2022-11-14T14:30:32.592Z,8.95
2022-11-14T14:35:37.129Z,8.92
2022-11-14T14:40:33.470Z,8.90
2022-11-14T14:45:32.404Z,8.89
2022-11-14T14:50:32.332Z,8.88
2022-11-14T14:55:32.288Z,8.87
2022-11-14T15:00:32.226Z,8.85
2022-11-14T15:05:32.158Z,8.82
2022-11-14T15:10:32.079Z,8.80
2022-11-14T15:15:32.011Z,8.78
2022-11-14T15:20:31.945Z,8.76
2022-11-14T15:25:31.855Z,8.74
2022-11-14T15:30:31.825Z,8.73
2022-11-14T15:35:31.749Z,8.71
2022-11-14T15:40:35.410Z,8.70
2022-11-14T15:45:33.578Z,8.68
2022-11-14T15:50:31.544Z,8.67
2022-11-14T15:55:31.492Z,8.67
2022-11-14T16:00:31.440Z,8.67
2022-11-14T16:05:31.360Z,8.69
2022-11-14T16:10:31.305Z,8.71
2022-11-14T16:15:31.233Z,8.72
2022-11-14T16:20:34.510Z,8.74
2022-11-14T16:25:31.097Z,8.74
2022-11-14T16:30:31.037Z,8.74
2022-11-14T16:35:30.959Z,8.73
2022-11-14T16:40:30.932Z,8.72
2022-11-14T16:45:30.821Z,8.73
2022-11-14T16:50:30.770Z,8.73
2022-11-14T16:55:30.687Z,8.73
2022-11-14T17:00:30.632Z,8.74
2022-11-14T17:05:30.563Z,8.76
2022-11-14T17:10:30.511Z,8.78
2022-11-14T17:15:30.434Z,8.80
2022-11-14T17:20:30.393Z,8.80
2022-11-14T17:25:30.299Z,8.77
2022-11-14T17:30:30.226Z,8.74
2022-11-14T17:35:30.178Z,8.70
2022-11-14T17:40:31.624Z,8.65
2022-11-14T17:45:30.028Z,8.59
2022-11-14T17:50:33.197Z,8.54
2022-11-14T17:55:30.899Z,8.50
2022-11-14T18:00:29.828Z,8.48
2022-11-14T18:05:29.774Z,8.48
2022-11-14T18:10:29.679Z,8.48
2022-11-14T18:15:29.621Z,8.48
2022-11-14T18:20:29.585Z,8.48
2022-11-14T18:25:29.488Z,8.48
2022-11-14T18:30:40.859Z,8.49
2022-11-14T18:35:30.368Z,8.50
2022-11-14T18:40:29.425Z,8.51
2022-11-14T18:45:29.242Z,8.53
2022-11-14T18:50:29.197Z,8.55
2022-11-14T18:55:29.120Z,8.57
2022-11-14T19:00:29.097Z,8.58
2022-11-14T19:05:28.985Z,8.58
2022-11-14T19:10:28.931Z,8.59
2022-11-14T19:15:28.847Z,8.61
2022-11-14T19:20:28.894Z,8.63
2022-11-14T19:25:30.217Z,8.66
2022-11-14T19:30:28.663Z,8.68
2022-11-14T19:35:28.596Z,8.70
2022-11-14T19:40:28.560Z,8.72
2022-11-14T19:45:28.502Z,8.76
2022-11-14T19:50:28.387Z,8.80
2022-11-14T19:55:28.318Z,8.84
2022-11-14T20:00:28.332Z,8.89
2022-11-14T20:05:28.178Z,8.93
2022-11-14T20:10:28.120Z,8.98
2022-11-14T20:15:28.046Z,9.02
2022-11-14T20:20:28.794Z,9.06
2022-11-14T20:25:27.931Z,9.10
2022-11-14T20:30:27.856Z,9.13
2022-11-14T20:35:27.787Z,9.13
2022-11-14T20:40:27.746Z,9.09
2022-11-14T20:45:27.659Z,9.01
2022-11-14T20:50:27.909Z,8.91
2022-11-14T20:55:27.546Z,8.80
2022-11-14T21:00:27.479Z,8.69
2022-11-14T21:05:27.399Z,8.61
2022-11-14T21:10:27.348Z,8.54
2022-11-14T21:15:27.272Z,8.50
2022-11-14T21:20:27.200Z,8.47
2022-11-14T21:25:27.129Z,8.45
2022-11-14T21:30:27.056Z,8.45
2022-11-14T21:35:26.997Z,8.46
2022-11-14T21:40:26.915Z,8.48
2022-11-14T21:45:26.865Z,8.49
2022-11-14T21:50:26.790Z,8.51
2022-11-14T21:55:26.734Z,8.52
2022-11-14T22:00:26.688Z,8.53
2022-11-14T22:05:26.602Z,8.54
2022-11-14T22:10:26.538Z,8.55
2022-11-14T22:15:26.463Z,8.58
2022-11-14T22:20:26.404Z,8.61
2022-11-14T22:25:26.315Z,8.64
2022-11-14T22:30:26.266Z,8.66
2022-11-14T22:35:26.285Z,8.65
2022-11-14T22:40:26.141Z,8.63
2022-11-14T22:45:26.066Z,8.62
2022-11-14T22:50:25.996Z,8.61
2022-11-14T22:55:25.949Z,8.63
2022-11-14T23:00:25.872Z,8.69
2022-11-14T23:05:25.812Z,8.76
2022-11-14T23:10:25.738Z,8.83
2022-11-14T23:15:25.690Z,8.90
2022-11-14T23:20:25.595Z,8.97
2022-11-14T23:25:25.530Z,9.05
2022-11-14T23:30:25.493Z,9.13
2022-11-14T23:35:25.412Z,9.23
2022-11-14T23:40:25.344Z,9.32
2022-11-14T23:45:25.418Z,9.42
2022-11-14T23:50:25.210Z,9.53
2022-11-14T23:55:25.166Z,9.65
